Terminal Aerodrome Forecast
Issued by NWS Shreveport, LA

Home | Current Version | Previous Version | Text Only | Print | Product List | Glossary On
Versions: 1 2 3 4 5 6 7 8 9 10 11 12
000
FTUS44 KSHV 281100 RRA
TAFSHV
TAF
KSHV 281143Z 2812/2912 00000KT P6SM FEW070
     FM281600 16006KT P6SM SCT060
     FM281800 15006KT P6SM VCTS BKN050CB
     FM290000 15004KT P6SM SCT060
     FM290600 17004KT P6SM BKN150=

USA.gov is the U.S. government's official web portal to all federal, state and local government web resources and services.